Time;durP1;ratioP1;P1;durP2;ratioP2;P2;SDS_P1;SDS_P2;PMS_P1;PMS_P2;Temp;Humidity;BMP_temperature;BMP_pressure;BME280_temperature;BME280_humidity;BME280_pressure;Samples;Min_cycle;Max_cycle;Signal;HPM_P1;HPM_P2
2021/01/02 00:02:39;;;;;;;36.00;22.00;;;4.50;99.90;;;;;;4971067;28;20191;-86
2021/01/02 00:05:13;;;;;;;35.30;22.27;;;4.40;99.90;;;;;;4947241;28;20195;-86
2021/01/02 00:16:47;;;;;;;32.55;22.50;;;4.50;99.90;;;;;;4936290;29;20188;-85
2021/01/02 00:19:42;;;;;;;29.20;20.35;;;4.50;99.90;;;;;;4937304;29;20581;-85
2021/01/02 00:22:30;;;;;;;32.88;19.77;;;4.50;99.90;;;;;;4918949;29;20263;-85
2021/01/02 00:25:02;;;;;;;34.40;20.30;;;4.60;99.90;;;;;;4950188;29;20188;-86
2021/01/02 00:27:47;;;;;;;30.60;19.80;;;4.50;99.90;;;;;;4927705;29;20208;-86
2021/01/02 00:30:40;;;;;;;33.75;20.40;;;4.40;99.90;;;;;;4937922;29;20242;-86
2021/01/02 00:33:17;;;;;;;31.17;21.20;;;4.60;99.90;;;;;;4942100;28;20195;-85
2021/01/02 00:35:51;;;;;;;30.65;19.75;;;4.70;99.90;;;;;;4938841;29;20583;-85
2021/01/02 00:38:19;;;;;;;34.88;19.35;;;4.50;99.90;;;;;;4939704;29;20212;-86
2021/01/02 00:40:53;;;;;;;30.63;18.35;;;4.50;99.90;;;;;;4939078;28;20195;-86
2021/01/02 00:43:26;;;;;;;33.60;19.98;;;4.50;99.90;;;;;;4939283;29;20311;-84
2021/01/02 00:45:55;;;;;;;33.58;21.77;;;4.40;99.90;;;;;;4938649;29;20182;-85
2021/01/02 00:48:24;;;;;;;28.90;19.73;;;4.40;99.90;;;;;;4954077;29;20271;-85
2021/01/02 00:50:54;;;;;;;28.73;18.48;;;4.50;99.90;;;;;;4966081;28;20467;-85
2021/01/02 00:53:39;;;;;;;31.38;20.15;;;4.30;99.90;;;;;;4957557;28;20184;-84
2021/01/02 00:56:13;;;;;;;30.27;20.15;;;4.30;99.90;;;;;;4950326;29;20188;-85
2021/01/02 00:58:54;;;;;;;28.55;18.38;;;4.40;99.90;;;;;;4922757;29;20263;-85
2021/01/02 01:02:05;;;;;;;32.20;20.38;;;4.40;99.90;;;;;;4954106;29;20189;-86
2021/01/02 01:05:20;;;;;;;29.67;19.05;;;4.40;99.90;;;;;;4922559;29;20645;-85
2021/01/02 01:07:55;;;;;;;31.92;19.08;;;4.40;99.90;;;;;;4955862;29;20649;-85
2021/01/02 01:10:27;;;;;;;30.13;19.45;;;4.40;99.90;;;;;;4940413;29;20593;-85
2021/01/02 01:13:01;;;;;;;33.05;20.85;;;4.30;99.90;;;;;;4973359;28;20187;-86
2021/01/02 01:15:31;;;;;;;30.58;19.50;;;4.30;99.90;;;;;;4972831;28;20184;-87
2021/01/02 01:18:20;;;;;;;29.92;19.08;;;4.30;99.90;;;;;;4955888;28;20216;-86
2021/01/02 01:21:08;;;;;;;29.30;18.58;;;4.30;99.90;;;;;;4953756;29;20212;-86
2021/01/02 01:23:49;;;;;;;25.83;17.08;;;4.30;99.90;;;;;;4938817;29;20184;-86
2021/01/02 01:26:43;;;;;;;26.95;19.63;;;4.30;99.90;;;;;;4937631;29;20220;-87
2021/01/02 01:29:21;;;;;;;28.17;17.83;;;4.30;99.90;;;;;;4969892;28;20181;-86
2021/01/02 01:31:56;;;;;;;28.23;17.48;;;4.30;99.90;;;;;;4937936;29;20172;-86
2021/01/02 01:34:24;;;;;;;32.40;18.73;;;4.40;99.90;;;;;;4953602;29;20196;-86
2021/01/02 01:36:53;;;;;;;26.10;17.60;;;4.30;99.90;;;;;;4938701;29;20331;-87
2021/01/02 01:39:24;;;;;;;25.33;17.60;;;4.30;99.90;;;;;;4940815;28;20284;-86
2021/01/02 01:41:58;;;;;;;30.58;18.00;;;4.30;99.90;;;;;;4919179;29;20581;-87
2021/01/02 01:45:08;;;;;;;27.60;18.23;;;4.30;99.90;;;;;;4919329;29;20223;-86
2021/01/02 01:47:38;;;;;;;28.23;18.20;;;4.30;99.90;;;;;;4922624;29;20185;-87
2021/01/02 01:50:24;;;;;;;28.00;18.45;;;4.40;99.90;;;;;;4940972;29;20179;-87
2021/01/02 01:52:52;;;;;;;27.83;17.63;;;4.30;99.90;;;;;;4940819;29;20200;-87
2021/01/02 01:55:35;;;;;;;29.10;19.00;;;4.50;99.90;;;;;;4972119;28;20192;-86
2021/01/02 01:58:48;;;;;;;29.25;17.90;;;4.30;99.90;;;;;;4957424;28;20227;-87
2021/01/02 02:01:25;;;;;;;27.35;17.05;;;4.30;99.90;;;;;;4956575;29;20214;-86
2021/01/02 02:04:34;;;;;;;24.50;16.98;;;4.50;99.90;;;;;;4940711;29;20434;-87
2021/01/02 02:07:13;;;;;;;26.02;16.77;;;4.20;99.90;;;;;;4938150;29;20565;-83
2021/01/02 02:09:46;;;;;;;26.80;17.60;;;4.30;99.90;;;;;;4964748;28;20215;-86
2021/01/02 02:12:22;;;;;;;27.00;18.38;;;4.30;99.90;;;;;;4956999;28;20172;-87
2021/01/02 02:15:09;;;;;;;29.10;18.27;;;4.30;99.90;;;;;;4956572;28;20194;-87
2021/01/02 02:17:49;;;;;;;25.83;17.00;;;4.30;99.90;;;;;;4954277;28;20212;-87
2021/01/02 02:20:23;;;;;;;24.52;16.52;;;4.30;99.90;;;;;;4936381;29;20195;-86
2021/01/02 02:23:04;;;;;;;24.65;16.75;;;4.40;99.90;;;;;;4936903;29;20193;-86
2021/01/02 02:26:11;;;;;;;24.98;16.25;;;4.30;99.90;;;;;;4936848;29;20674;-87
2021/01/02 02:28:52;;;;;;;25.80;16.23;;;4.30;99.90;;;;;;4942821;28;20797;-87
2021/01/02 02:31:26;;;;;;;27.92;18.08;;;4.50;99.90;;;;;;4952818;29;20177;-87
2021/01/02 02:34:04;;;;;;;27.88;17.10;;;4.30;99.90;;;;;;4937627;29;20656;-84
2021/01/02 02:36:31;;;;;;;23.50;15.90;;;4.30;99.90;;;;;;4936940;29;20216;-84
2021/01/02 02:39:04;;;;;;;27.60;16.25;;;4.60;99.90;;;;;;4947145;29;20586;-84
2021/01/02 02:41:44;;;;;;;21.83;15.70;;;4.30;99.90;;;;;;4936810;29;20196;-84
2021/01/02 02:44:17;;;;;;;24.65;16.83;;;4.20;99.90;;;;;;4936840;29;20252;-83
2021/01/02 02:46:47;;;;;;;27.52;17.63;;;4.30;99.90;;;;;;4952359;29;20775;-87
2021/01/02 02:49:30;;;;;;;23.52;16.33;;;4.20;99.90;;;;;;4936397;29;20279;-86
2021/01/02 02:52:33;;;;;;;25.50;17.05;;;4.10;99.90;;;;;;4933188;29;20630;-87
2021/01/02 02:55:00;;;;;;;34.55;19.38;;;4.10;99.90;;;;;;4949315;29;20204;-88
2021/01/02 02:57:35;;;;;;;28.98;18.55;;;4.10;99.90;;;;;;4953861;29;20222;-87
2021/01/02 03:00:09;;;;;;;28.25;18.60;;;4.10;99.90;;;;;;4956504;28;20282;-85
2021/01/02 03:02:35;;;;;;;28.65;18.45;;;4.10;99.90;;;;;;4956288;28;20184;-87
2021/01/02 03:05:03;;;;;;;27.17;18.85;;;4.10;99.90;;;;;;4956744;28;20199;-86
2021/01/02 03:07:42;;;;;;;28.00;18.20;;;4.20;99.90;;;;;;4956294;28;20278;-85
2021/01/02 03:10:12;;;;;;;29.17;17.98;;;4.00;99.90;;;;;;4937454;28;20195;-86
2021/01/02 03:13:02;;;;;;;26.35;18.10;;;4.00;99.90;;;;;;4936403;29;20238;-86
2021/01/02 03:15:31;;;;;;;28.10;17.73;;;4.10;99.90;;;;;;4937201;29;20188;-85
2021/01/02 03:17:57;;;;;;;29.05;18.38;;;4.10;99.90;;;;;;4936692;29;20219;-86
2021/01/02 03:20:25;;;;;;;28.85;16.60;;;4.30;99.90;;;;;;4936515;29;20581;-86
2021/01/02 03:22:56;;;;;;;25.92;17.95;;;4.10;99.90;;;;;;4904886;29;20205;-86
2021/01/02 03:25:24;;;;;;;23.70;16.90;;;4.20;99.90;;;;;;4936230;29;20228;-86
2021/01/02 03:27:54;;;;;;;23.83;16.55;;;4.20;99.90;;;;;;4956049;28;20203;-86
2021/01/02 03:30:23;;;;;;;28.05;16.98;;;4.20;99.90;;;;;;4955524;29;20295;-86
2021/01/02 03:32:52;;;;;;;26.98;16.55;;;4.20;99.90;;;;;;4971259;28;20707;-85
2021/01/02 03:35:20;;;;;;;26.08;17.23;;;4.10;99.90;;;;;;4939077;29;20194;-86
2021/01/02 03:37:48;;;;;;;25.67;16.85;;;4.10;99.90;;;;;;4955840;28;20234;-84
2021/01/02 03:40:19;;;;;;;27.20;18.10;;;4.10;99.90;;;;;;4952434;29;20188;-86
2021/01/02 03:42:47;;;;;;;27.02;18.30;;;4.10;99.90;;;;;;4920722;29;20180;-86
2021/01/02 03:45:16;;;;;;;23.30;16.15;;;4.10;99.90;;;;;;4920761;29;20243;-85
2021/01/02 03:47:46;;;;;;;25.52;16.17;;;4.10;99.90;;;;;;4935617;29;20189;-86
2021/01/02 03:50:19;;;;;;;27.08;16.90;;;4.40;99.90;;;;;;4936315;29;20200;-86
2021/01/02 03:52:50;;;;;;;22.50;15.52;;;4.20;99.90;;;;;;4936107;29;20196;-85
2021/01/02 03:55:18;;;;;;;23.35;15.95;;;4.30;99.90;;;;;;4920095;29;20201;-85
2021/01/02 03:57:46;;;;;;;26.27;16.30;;;4.20;99.90;;;;;;4935488;29;20288;-85
2021/01/02 04:00:15;;;;;;;20.83;15.07;;;4.10;99.90;;;;;;4936306;29;20180;-85
2021/01/02 04:02:43;;;;;;;26.13;16.25;;;3.90;99.90;;;;;;4937507;29;20549;-86
2021/01/02 04:05:15;;;;;;;28.13;17.00;;;4.00;99.90;;;;;;4939507;29;20184;-86
2021/01/02 04:07:40;;;;;;;23.00;16.50;;;4.10;99.90;;;;;;4939292;29;20440;-86
2021/01/02 04:10:09;;;;;;;21.10;14.67;;;4.00;99.90;;;;;;4958704;29;20246;-86
2021/01/02 04:12:40;;;;;;;23.60;15.52;;;4.20;99.90;;;;;;4942772;29;20439;-86
2021/01/02 04:15:08;;;;;;;25.20;16.92;;;4.00;99.90;;;;;;4942581;29;20188;-86
2021/01/02 04:17:36;;;;;;;25.17;17.52;;;4.00;99.90;;;;;;4958214;28;20239;-86
2021/01/02 04:20:07;;;;;;;27.02;17.42;;;4.00;99.90;;;;;;4921023;29;20506;-86
2021/01/02 04:22:38;;;;;;;28.17;18.23;;;4.00;99.90;;;;;;4935902;29;20209;-86
2021/01/02 04:25:07;;;;;;;28.55;18.23;;;3.90;99.90;;;;;;4935781;29;20237;-86
2021/01/02 04:27:33;;;;;;;25.02;17.10;;;4.00;99.90;;;;;;4935781;29;20222;-86
2021/01/02 04:30:05;;;;;;;29.02;18.40;;;3.90;99.90;;;;;;4905231;29;20669;-86
2021/01/02 04:32:34;;;;;;;31.50;20.17;;;4.10;99.90;;;;;;4936111;29;20248;-85
2021/01/02 04:35:05;;;;;;;30.40;18.45;;;4.00;99.90;;;;;;4920365;29;20185;-86
2021/01/02 04:37:33;;;;;;;28.45;18.63;;;3.90;99.90;;;;;;4935465;29;20272;-86
2021/01/02 04:40:01;;;;;;;29.80;19.88;;;3.90;99.90;;;;;;4987299;28;20202;-86
2021/01/02 04:42:35;;;;;;;33.60;18.45;;;3.90;99.90;;;;;;4958712;28;20187;-85
2021/01/02 04:45:06;;;;;;;33.85;18.20;;;4.00;99.90;;;;;;4967238;28;20534;-86
2021/01/02 04:47:32;;;;;;;27.63;17.42;;;4.00;99.90;;;;;;4954876;29;20209;-86
2021/01/02 04:49:59;;;;;;;29.50;17.80;;;3.90;99.90;;;;;;4938289;29;20189;-86
2021/01/02 04:52:32;;;;;;;34.33;17.38;;;3.90;99.90;;;;;;4934932;29;20221;-86
2021/01/02 04:55:06;;;;;;;27.48;18.00;;;3.90;99.90;;;;;;4935493;29;20200;-86
2021/01/02 04:57:36;;;;;;;27.02;17.25;;;3.90;99.90;;;;;;4919407;29;20216;-85
2021/01/02 05:00:09;;;;;;;31.13;18.52;;;3.90;99.90;;;;;;4920699;29;20189;-85
2021/01/02 05:02:38;;;;;;;31.50;18.00;;;3.90;99.90;;;;;;4935368;28;20296;-86
2021/01/02 05:05:06;;;;;;;26.38;17.67;;;3.90;99.90;;;;;;4951223;28;20189;-86
2021/01/02 05:07:35;;;;;;;28.77;16.95;;;3.90;99.90;;;;;;4903892;29;20718;-86
2021/01/02 05:10:08;;;;;;;29.85;18.58;;;4.20;99.90;;;;;;4987991;28;20223;-85
2021/01/02 05:12:37;;;;;;;30.65;18.65;;;4.10;99.90;;;;;;4957328;28;20204;-84
2021/01/02 05:15:10;;;;;;;34.22;18.38;;;3.90;99.90;;;;;;4957649;28;20574;-86
2021/01/02 05:17:43;;;;;;;29.50;17.90;;;3.90;99.90;;;;;;4950021;28;20278;-86
2021/01/02 05:20:17;;;;;;;28.80;19.13;;;3.90;99.90;;;;;;4938279;29;20188;-85
2021/01/02 05:22:48;;;;;;;28.38;18.83;;;3.80;99.90;;;;;;4939276;29;20189;-86
2021/01/02 05:25:22;;;;;;;29.80;18.20;;;3.90;99.90;;;;;;4938152;29;20236;-86
2021/01/02 05:27:52;;;;;;;28.77;18.23;;;3.80;99.90;;;;;;4938115;29;20188;-86
2021/01/02 05:30:28;;;;;;;29.95;18.50;;;3.90;99.90;;;;;;4954028;28;20184;-86
2021/01/02 05:33:08;;;;;;;28.48;18.55;;;3.90;99.90;;;;;;4938823;29;20633;-86
2021/01/02 05:35:46;;;;;;;23.70;16.80;;;3.90;99.90;;;;;;4938850;29;20658;-85
2021/01/02 05:38:21;;;;;;;28.75;18.90;;;3.60;99.90;;;;;;4949411;29;20212;-86
2021/01/02 05:41:04;;;;;;;26.20;17.85;;;3.90;99.90;;;;;;4923448;29;20188;-85
2021/01/02 05:43:37;;;;;;;28.95;18.45;;;4.00;99.90;;;;;;4937279;29;20192;-86
2021/01/02 05:46:08;;;;;;;29.88;18.35;;;3.90;99.90;;;;;;4937693;29;20584;-85
2021/01/02 05:48:36;;;;;;;32.47;19.42;;;4.00;99.90;;;;;;4938227;29;20172;-85
2021/01/02 05:51:15;;;;;;;29.17;18.17;;;4.10;99.90;;;;;;4933756;28;20619;-86
2021/01/02 05:53:46;;;;;;;32.75;21.35;;;3.90;99.90;;;;;;4917980;29;20505;-85
2021/01/02 05:56:17;;;;;;;28.92;18.85;;;4.10;99.90;;;;;;4952769;28;20657;-86
2021/01/02 05:58:47;;;;;;;30.55;19.40;;;3.90;99.90;;;;;;4921129;29;20220;-86
2021/01/02 06:01:21;;;;;;;31.17;19.00;;;3.90;99.90;;;;;;4938259;28;20204;-85
2021/01/02 06:03:52;;;;;;;28.08;18.75;;;3.90;99.90;;;;;;4938378;29;20207;-86
2021/01/02 06:06:20;;;;;;;29.95;18.30;;;3.80;99.90;;;;;;4952965;29;20212;-86
2021/01/02 06:08:50;;;;;;;34.35;19.88;;;3.90;99.90;;;;;;4945308;29;20199;-85
2021/01/02 06:11:23;;;;;;;32.90;20.23;;;4.10;99.90;;;;;;4956530;29;20595;-85
2021/01/02 06:13:55;;;;;;;31.45;18.80;;;3.90;99.90;;;;;;4956323;29;20203;-85
2021/01/02 06:16:28;;;;;;;28.67;16.90;;;4.00;99.90;;;;;;4956324;29;20171;-86
2021/01/02 06:18:56;;;;;;;29.38;19.23;;;4.00;99.90;;;;;;4922146;29;20221;-86
2021/01/02 06:21:25;;;;;;;28.85;18.75;;;4.00;99.90;;;;;;4948631;29;20241;-85
2021/01/02 06:23:54;;;;;;;36.72;20.98;;;4.00;99.90;;;;;;4934089;29;20189;-86
2021/01/02 06:26:26;;;;;;;30.33;19.65;;;4.10;99.90;;;;;;4916947;29;20308;-86
2021/01/02 06:28:54;;;;;;;33.38;19.65;;;4.20;99.90;;;;;;4949655;28;20192;-86
2021/01/02 06:31:25;;;;;;;35.28;19.42;;;3.90;99.90;;;;;;4948198;29;20589;-85
2021/01/02 06:33:57;;;;;;;34.47;19.42;;;3.90;99.90;;;;;;4918463;29;20193;-86
2021/01/02 06:36:36;;;;;;;31.02;18.88;;;4.20;99.90;;;;;;4933092;29;20225;-86
2021/01/02 06:39:24;;;;;;;31.95;20.05;;;4.10;99.90;;;;;;4938937;29;20215;-85
2021/01/02 06:41:55;;;;;;;36.50;21.67;;;3.90;99.90;;;;;;4955104;28;20537;-85
2021/01/02 06:44:45;;;;;;;30.52;17.80;;;4.20;99.90;;;;;;4933484;28;20575;-85
2021/01/02 06:47:22;;;;;;;30.95;19.23;;;4.30;99.90;;;;;;4935670;29;20213;-86
2021/01/02 06:49:56;;;;;;;38.97;20.05;;;4.00;99.90;;;;;;4940099;29;20168;-86
2021/01/02 06:52:35;;;;;;;35.47;19.90;;;4.10;99.90;;;;;;4955530;29;20187;-86
2021/01/02 06:55:21;;;;;;;31.92;19.88;;;3.90;99.90;;;;;;4955485;29;20673;-86
2021/01/02 06:57:50;;;;;;;32.30;18.73;;;3.90;99.90;;;;;;4971812;28;20257;-85
2021/01/02 07:00:26;;;;;;;37.25;19.42;;;4.00;99.90;;;;;;4956833;28;20179;-86
2021/01/02 07:02:58;;;;;;;36.83;20.45;;;4.00;99.90;;;;;;4955970;29;20282;-86
2021/01/02 07:05:44;;;;;;;35.92;20.02;;;3.90;99.90;;;;;;4939192;29;20746;-86
2021/01/02 07:08:42;;;;;;;30.55;19.10;;;4.00;99.90;;;;;;4936535;29;20208;-86
2021/01/02 07:11:31;;;;;;;29.10;18.63;;;3.90;99.90;;;;;;4920646;29;20777;-86
2021/01/02 07:14:14;;;;;;;35.45;20.20;;;4.00;99.90;;;;;;4936080;29;20192;-84
2021/01/02 07:16:49;;;;;;;33.20;19.75;;;4.00;99.90;;;;;;4936242;29;20183;-86
2021/01/02 07:19:27;;;;;;;41.78;21.10;;;4.10;99.90;;;;;;4971263;28;20207;-85
2021/01/02 07:22:04;;;;;;;30.98;19.13;;;4.20;99.90;;;;;;4955224;29;20257;-85
2021/01/02 07:24:39;;;;;;;31.23;18.77;;;4.30;99.90;;;;;;4939284;29;20188;-85
2021/01/02 07:27:25;;;;;;;32.60;20.17;;;4.00;99.90;;;;;;4954773;29;20614;-84
2021/01/02 07:29:55;;;;;;;31.80;19.08;;;4.00;99.90;;;;;;4954904;29;20343;-84
2021/01/02 07:32:26;;;;;;;33.85;19.25;;;4.00;99.90;;;;;;4954728;29;20195;-84
2021/01/02 07:34:57;;;;;;;37.15;21.58;;;4.10;99.90;;;;;;4955846;28;20176;-85
2021/01/02 07:37:28;;;;;;;33.50;19.45;;;3.90;99.90;;;;;;4958269;28;20188;-85
2021/01/02 07:40:01;;;;;;;29.25;17.95;;;3.90;99.90;;;;;;4941996;29;20228;-85
2021/01/02 07:42:33;;;;;;;29.98;18.15;;;4.10;99.90;;;;;;4936195;29;20268;-85
2021/01/02 07:45:15;;;;;;;34.85;19.55;;;3.80;99.90;;;;;;4951379;29;20177;-85
2021/01/02 07:47:50;;;;;;;31.70;18.52;;;3.90;99.90;;;;;;4952210;29;20181;-86
2021/01/02 07:50:18;;;;;;;38.25;19.20;;;4.00;99.90;;;;;;4984914;28;20191;-84
2021/01/02 07:52:58;;;;;;;31.77;18.60;;;4.00;99.90;;;;;;4974482;28;20250;-85
2021/01/02 07:55:35;;;;;;;28.98;19.55;;;4.30;99.90;;;;;;4959484;28;20521;-85
2021/01/02 07:58:04;;;;;;;35.22;21.10;;;4.00;99.90;;;;;;4958698;29;20211;-85
2021/01/02 08:00:30;;;;;;;38.37;20.23;;;4.10;99.90;;;;;;4959324;28;20575;-85
2021/01/02 08:03:04;;;;;;;35.25;18.65;;;4.10;99.90;;;;;;4959208;28;20880;-85
2021/01/02 08:05:37;;;;;;;28.58;19.05;;;4.10;99.90;;;;;;4959063;28;20180;-84
2021/01/02 08:08:08;;;;;;;35.78;20.20;;;4.20;99.90;;;;;;4956077;29;20207;-85
2021/01/02 08:10:41;;;;;;;35.80;20.35;;;4.00;99.90;;;;;;4976314;28;20198;-84
2021/01/02 08:13:18;;;;;;;35.03;18.58;;;4.10;99.90;;;;;;4976408;28;20191;-86
2021/01/02 08:15:52;;;;;;;33.83;19.85;;;4.10;99.90;;;;;;4960363;28;20206;-85
2021/01/02 08:18:18;;;;;;;32.22;19.17;;;4.10;99.90;;;;;;4976015;28;20219;-86
2021/01/02 08:20:59;;;;;;;31.38;18.40;;;4.00;99.90;;;;;;4959923;28;20195;-85
2021/01/02 08:23:33;;;;;;;32.55;20.98;;;4.30;99.90;;;;;;4960491;28;20191;-86
2021/01/02 08:26:04;;;;;;;32.70;19.75;;;4.10;99.90;;;;;;4944603;28;20299;-86
2021/01/02 08:28:33;;;;;;;29.95;18.23;;;4.30;99.90;;;;;;4976457;28;20187;-86
2021/01/02 08:31:04;;;;;;;31.50;18.90;;;4.10;99.90;;;;;;4976353;28;20214;-86
2021/01/02 08:33:31;;;;;;;31.58;18.83;;;4.10;99.90;;;;;;4976149;28;20199;-86
2021/01/02 08:35:59;;;;;;;35.90;20.27;;;4.10;99.90;;;;;;4976181;28;20192;-85
2021/01/02 08:38:28;;;;;;;35.42;20.35;;;4.00;99.90;;;;;;4965407;28;20307;-85
2021/01/02 08:40:58;;;;;;;36.38;19.58;;;3.90;99.90;;;;;;4961452;28;20200;-85
2021/01/02 08:43:31;;;;;;;32.08;18.58;;;4.00;99.90;;;;;;4920391;29;20764;-86
2021/01/02 08:46:04;;;;;;;34.53;19.63;;;4.10;99.90;;;;;;4935114;29;20189;-86
2021/01/02 08:48:32;;;;;;;40.47;20.00;;;4.00;99.90;;;;;;4950269;28;20192;-86
2021/01/02 08:50:58;;;;;;;36.70;20.17;;;4.10;99.90;;;;;;4964370;28;20545;-86
2021/01/02 08:53:38;;;;;;;36.10;19.23;;;4.20;99.90;;;;;;4957977;28;20803;-86
2021/01/02 08:56:22;;;;;;;28.40;18.77;;;4.10;99.90;;;;;;4957388;29;20191;-85
2021/01/02 08:58:48;;;;;;;31.63;18.35;;;4.00;99.90;;;;;;4941425;29;20253;-85
2021/01/02 09:01:20;;;;;;;33.40;17.75;;;4.20;99.90;;;;;;4957585;29;20200;-85
2021/01/02 09:03:46;;;;;;;38.83;20.42;;;4.10;99.90;;;;;;4941271;29;20331;-85
2021/01/02 09:06:25;;;;;;;30.88;16.88;;;4.20;99.90;;;;;;4957272;28;20196;-85
2021/01/02 09:09:06;;;;;;;34.72;18.88;;;4.30;99.90;;;;;;4933071;29;20218;-86
2021/01/02 09:11:51;;;;;;;34.72;20.45;;;4.40;99.90;;;;;;4922698;29;20200;-86
2021/01/02 09:14:20;;;;;;;32.67;20.02;;;4.30;99.90;;;;;;4937962;29;20199;-85
2021/01/02 09:17:07;;;;;;;36.20;20.33;;;4.30;99.90;;;;;;4922498;29;20196;-86
2021/01/02 09:19:33;;;;;;;29.90;18.23;;;3.90;99.90;;;;;;4955276;29;20685;-85
2021/01/02 09:22:01;;;;;;;33.38;20.00;;;4.40;99.90;;;;;;4956833;28;20202;-86
2021/01/02 09:24:35;;;;;;;47.17;26.15;;;4.50;99.90;;;;;;4957875;28;20275;-85
2021/01/02 09:27:03;;;;;;;39.83;23.92;;;4.50;99.90;;;;;;4952899;28;20233;-86
2021/01/02 09:29:33;;;;;;;43.83;21.45;;;4.40;99.90;;;;;;4934649;28;20505;-85
2021/01/02 09:31:59;;;;;;;37.55;21.27;;;4.60;99.90;;;;;;4950566;29;20220;-86
2021/01/02 09:34:25;;;;;;;33.30;19.97;;;4.50;99.90;;;;;;4950684;29;20268;-87
2021/01/02 09:36:56;;;;;;;33.75;21.92;;;4.50;99.90;;;;;;4919508;29;20437;-85
2021/01/02 09:39:24;;;;;;;36.13;20.77;;;4.60;99.90;;;;;;4912943;29;20217;-86
2021/01/02 09:41:54;;;;;;;35.40;19.75;;;4.50;99.90;;;;;;4950281;28;20248;-86
2021/01/02 09:44:22;;;;;;;37.33;20.88;;;4.50;99.90;;;;;;4949945;29;20181;-86
2021/01/02 09:46:49;;;;;;;43.37;21.40;;;4.40;99.90;;;;;;4950514;29;20189;-86
2021/01/02 09:49:19;;;;;;;38.42;20.40;;;4.30;99.90;;;;;;4919220;29;20430;-86
2021/01/02 09:51:45;;;;;;;36.15;19.88;;;4.20;99.90;;;;;;4953161;28;20680;-86
2021/01/02 09:54:12;;;;;;;39.47;20.90;;;4.20;99.90;;;;;;4937861;29;20220;-85
2021/01/02 09:56:49;;;;;;;40.08;22.40;;;4.10;99.90;;;;;;4937405;29;20323;-86
2021/01/02 09:59:18;;;;;;;37.25;22.52;;;4.20;99.90;;;;;;4937179;29;20212;-85
2021/01/02 10:01:44;;;;;;;42.40;20.85;;;4.20;99.90;;;;;;4937813;29;20499;-85
2021/01/02 10:04:15;;;;;;;45.17;22.80;;;4.20;99.90;;;;;;4936633;29;20201;-86
2021/01/02 10:06:44;;;;;;;42.13;22.08;;;4.30;99.90;;;;;;4936487;29;20185;-84
2021/01/02 10:09:10;;;;;;;40.17;21.13;;;4.20;99.90;;;;;;4936448;29;20196;-84
2021/01/02 10:11:45;;;;;;;38.35;20.15;;;4.40;99.90;;;;;;4936781;29;20224;-85
2021/01/02 10:14:13;;;;;;;37.13;21.95;;;4.50;99.90;;;;;;4936228;29;20197;-85
2021/01/02 10:16:39;;;;;;;39.00;21.70;;;4.60;99.90;;;;;;4952965;29;20185;-85
2021/01/02 10:19:05;;;;;;;46.13;21.90;;;4.50;99.90;;;;;;4920073;29;20287;-85
2021/01/02 10:21:33;;;;;;;39.20;19.87;;;4.50;99.90;;;;;;4936483;29;20463;-85
2021/01/02 10:23:59;;;;;;;43.38;20.15;;;4.50;99.90;;;;;;4952348;29;20777;-84
2021/01/02 10:26:25;;;;;;;37.13;21.33;;;4.60;99.90;;;;;;4936460;29;20227;-84
2021/01/02 10:28:55;;;;;;;43.00;23.00;;;4.50;99.90;;;;;;4937009;29;20487;-85
2021/01/02 10:31:24;;;;;;;43.65;22.45;;;4.50;99.90;;;;;;4952433;29;20436;-84
2021/01/02 10:33:53;;;;;;;51.33;25.45;;;4.50;99.90;;;;;;4951741;29;20177;-85
2021/01/02 10:36:21;;;;;;;45.08;22.92;;;4.50;99.90;;;;;;4936239;29;20192;-85
2021/01/02 10:38:49;;;;;;;47.60;23.70;;;4.60;99.90;;;;;;4976652;28;20211;-84
2021/01/02 10:41:20;;;;;;;50.30;24.30;;;4.80;99.90;;;;;;4948382;29;20247;-85
2021/01/02 10:43:48;;;;;;;47.22;23.15;;;4.60;99.90;;;;;;4952227;29;20208;-85
2021/01/02 10:46:20;;;;;;;42.85;22.65;;;4.60;99.90;;;;;;4936288;29;20662;-84
2021/01/02 10:49:00;;;;;;;48.25;24.05;;;4.60;99.90;;;;;;4954208;28;20199;-82
2021/01/02 10:51:31;;;;;;;44.97;22.80;;;4.60;99.90;;;;;;4963817;28;20650;-84
2021/01/02 10:54:01;;;;;;;42.90;22.80;;;4.50;99.90;;;;;;4968252;28;20649;-83
2021/01/02 10:56:32;;;;;;;42.15;21.63;;;4.60;99.90;;;;;;4928603;29;20192;-84
2021/01/02 10:59:03;;;;;;;44.60;25.30;;;4.60;99.90;;;;;;4952134;28;20216;-85
2021/01/02 11:01:41;;;;;;;44.72;21.58;;;4.50;99.90;;;;;;4936595;29;20272;-83
2021/01/02 11:04:10;;;;;;;42.15;23.25;;;4.50;99.90;;;;;;4931298;28;20319;-85
2021/01/02 11:06:43;;;;;;;43.33;20.60;;;4.50;99.90;;;;;;4955458;29;20164;-83
2021/01/02 11:09:13;;;;;;;39.90;22.83;;;4.50;99.90;;;;;;4942053;29;20634;-82
2021/01/02 11:11:42;;;;;;;44.50;20.80;;;4.50;99.90;;;;;;4921512;29;20213;-83
2021/01/02 11:14:10;;;;;;;42.33;21.70;;;4.50;99.90;;;;;;4935763;29;20188;-82
2021/01/02 11:16:45;;;;;;;35.72;21.25;;;4.60;99.90;;;;;;4950764;28;20208;-83
2021/01/02 11:19:13;;;;;;;43.83;22.63;;;4.50;99.90;;;;;;4938346;28;20209;-82
2021/01/02 11:21:44;;;;;;;45.83;21.42;;;4.70;99.90;;;;;;4967052;28;20207;-82
2021/01/02 11:24:14;;;;;;;42.40;21.50;;;4.70;99.90;;;;;;4936595;29;20177;-82
2021/01/02 11:26:56;;;;;;;41.00;22.80;;;4.60;99.90;;;;;;4951208;29;20220;-80
2021/01/02 11:29:28;;;;;;;48.50;25.27;;;4.60;99.90;;;;;;4935449;28;20199;-82
2021/01/02 11:32:00;;;;;;;48.70;24.65;;;4.60;99.90;;;;;;4935473;29;20657;-82
2021/01/02 11:34:31;;;;;;;42.05;22.38;;;4.70;99.90;;;;;;4936470;28;20184;-82
2021/01/02 11:37:02;;;;;;;43.75;22.25;;;4.70;99.90;;;;;;4936293;29;20235;-81
2021/01/02 11:39:31;;;;;;;37.00;20.98;;;4.90;99.90;;;;;;4934722;29;20255;-82
2021/01/02 11:42:07;;;;;;;39.70;21.08;;;4.90;99.90;;;;;;4927238;29;20287;-82
2021/01/02 11:44:33;;;;;;;39.13;21.45;;;4.90;99.90;;;;;;4936331;28;20227;-82
2021/01/02 11:47:03;;;;;;;39.47;22.42;;;5.00;99.90;;;;;;4950377;28;20212;-81
2021/01/02 11:49:35;;;;;;;40.90;22.33;;;5.10;99.90;;;;;;4951418;29;20195;-82
2021/01/02 11:52:04;;;;;;;37.03;20.20;;;5.10;99.90;;;;;;4951545;29;20192;-85
2021/01/02 11:54:34;;;;;;;36.20;20.58;;;5.20;99.90;;;;;;4935399;29;20704;-84
2021/01/02 11:57:06;;;;;;;40.58;21.95;;;5.30;99.90;;;;;;4951787;28;20197;-83
2021/01/02 11:59:36;;;;;;;35.20;20.27;;;5.30;99.90;;;;;;4927234;29;20303;-84
2021/01/02 12:02:07;;;;;;;36.35;19.30;;;5.40;99.90;;;;;;4935111;29;20265;-82
2021/01/02 12:04:34;;;;;;;37.78;21.23;;;5.30;99.90;;;;;;4951154;28;20200;-82
2021/01/02 12:07:03;;;;;;;30.80;18.55;;;5.40;99.90;;;;;;4950697;29;20618;-80
2021/01/02 12:09:32;;;;;;;34.45;19.83;;;5.50;99.90;;;;;;4960760;28;20196;-84
2021/01/02 12:11:58;;;;;;;33.38;20.88;;;5.50;99.90;;;;;;4957547;28;20184;-83
2021/01/02 12:14:34;;;;;;;37.42;21.02;;;5.50;99.90;;;;;;4935909;29;20208;-81
2021/01/02 12:17:11;;;;;;;34.90;20.38;;;5.60;99.90;;;;;;4934788;29;20192;-82
2021/01/02 12:19:40;;;;;;;39.75;21.30;;;5.50;99.90;;;;;;4931783;29;20223;-82
2021/01/02 12:22:12;;;;;;;33.90;19.17;;;5.50;99.90;;;;;;4955467;28;20191;-82
2021/01/02 12:24:38;;;;;;;38.53;21.50;;;5.50;99.90;;;;;;4919754;29;20207;-85
2021/01/02 12:27:06;;;;;;;43.10;22.37;;;5.40;99.90;;;;;;4939232;29;20699;-85
2021/01/02 12:29:36;;;;;;;40.30;21.30;;;5.50;99.90;;;;;;4947057;28;20466;-80
2021/01/02 12:32:09;;;;;;;35.78;20.58;;;5.50;99.90;;;;;;4956295;28;20283;-81
2021/01/02 12:34:44;;;;;;;37.42;21.73;;;5.50;99.90;;;;;;4964958;28;20198;-81
2021/01/02 12:37:18;;;;;;;40.85;22.73;;;5.50;99.90;;;;;;4958500;28;20203;-80
2021/01/02 12:39:45;;;;;;;40.67;21.25;;;5.50;99.90;;;;;;4941007;28;20657;-79
2021/01/02 12:42:14;;;;;;;41.03;21.63;;;5.60;99.90;;;;;;4937967;29;20638;-79
2021/01/02 12:44:44;;;;;;;37.45;20.60;;;5.70;99.90;;;;;;4938063;29;20196;-83
2021/01/02 12:47:15;;;;;;;37.50;20.60;;;5.60;99.90;;;;;;4968725;28;20274;-84
2021/01/02 12:49:47;;;;;;;37.42;19.48;;;5.60;99.90;;;;;;4926553;29;20297;-83
2021/01/02 12:52:17;;;;;;;35.17;19.38;;;5.70;99.90;;;;;;4939327;29;20185;-84
2021/01/02 12:54:48;;;;;;;37.63;19.98;;;5.80;99.90;;;;;;4922456;29;20219;-85
2021/01/02 12:57:16;;;;;;;40.25;21.70;;;5.90;99.90;;;;;;4938910;29;20193;-83
2021/01/02 12:59:47;;;;;;;37.38;19.85;;;6.00;99.90;;;;;;4937523;29;20223;-83
2021/01/02 13:02:17;;;;;;;33.05;18.65;;;5.80;99.90;;;;;;4952820;28;20192;-80
2021/01/02 13:04:51;;;;;;;33.28;19.15;;;5.80;99.90;;;;;;4946935;29;20193;-81
2021/01/02 13:07:20;;;;;;;33.85;19.40;;;5.80;99.90;;;;;;4935601;29;20204;-82
2021/01/02 13:09:49;;;;;;;36.03;20.33;;;5.70;99.90;;;;;;4938419;28;20568;-81
2021/01/02 13:12:21;;;;;;;39.67;19.95;;;5.60;99.90;;;;;;4937382;29;20192;-80
2021/01/02 13:14:49;;;;;;;34.75;20.35;;;5.60;99.90;;;;;;4952949;29;20243;-79
2021/01/02 13:17:15;;;;;;;35.90;18.42;;;5.70;99.90;;;;;;4938003;28;20224;-80